Time;durP1;ratioP1;P1;durP2;ratioP2;P2;SDS_P1;SDS_P2;PMS_P1;PMS_P2;Temp;Humidity;BMP_temperature;BMP_pressure;BME280_temperature;BME280_humidity;BME280_pressure;Samples;Min_cycle;Max_cycle;Signal;HPM_P1;HPM_P2
2023/10/13 00:01:59;;;;;;;254.05;239.98;;;20.40;99.90;;;;;;4971624;28;20492;-71
2023/10/13 00:04:26;;;;;;;242.25;228.70;;;20.30;99.90;;;;;;4968750;28;20046;-71
2023/10/13 00:06:52;;;;;;;250.30;236.48;;;20.30;99.90;;;;;;4972763;28;20034;-71
2023/10/13 00:09:24;;;;;;;238.98;226.15;;;20.40;99.90;;;;;;4963328;28;20087;-71
2023/10/13 00:11:52;;;;;;;249.85;236.40;;;20.30;99.90;;;;;;4974181;28;20054;-71
2023/10/13 00:14:20;;;;;;;253.73;240.45;;;20.20;99.90;;;;;;4966691;28;20058;-71
2023/10/13 00:17:04;;;;;;;235.73;222.65;;;20.00;99.90;;;;;;4962189;28;20047;-71
2023/10/13 00:19:44;;;;;;;250.77;236.20;;;19.90;99.90;;;;;;4973212;28;20046;-71
2023/10/13 00:22:11;;;;;;;243.02;229.18;;;19.90;99.90;;;;;;4972750;28;20046;-71
2023/10/13 00:24:45;;;;;;;221.38;208.63;;;19.90;99.90;;;;;;4970144;28;20051;-70
2023/10/13 00:27:30;;;;;;;214.63;201.93;;;19.80;99.90;;;;;;4958442;28;21651;-71
2023/10/13 00:30:20;;;;;;;196.85;185.27;;;19.70;99.90;;;;;;4970603;28;20030;-71
2023/10/13 00:32:54;;;;;;;154.48;145.10;;;19.60;99.90;;;;;;4958058;28;20031;-71
2023/10/13 00:35:36;;;;;;;161.50;152.38;;;19.60;99.90;;;;;;4959281;28;20053;-71
2023/10/13 00:38:16;;;;;;;161.18;151.80;;;19.70;99.90;;;;;;4972394;28;20035;-71
2023/10/13 00:40:53;;;;;;;172.70;163.07;;;19.70;99.90;;;;;;4972907;28;20043;-71
2023/10/13 00:46:05;;;;;;;262.80;247.38;;;19.90;99.90;;;;;;4975599;28;20038;-71
2023/10/13 00:48:45;;;;;;;275.83;259.30;;;20.00;99.90;;;;;;4964406;28;20503;-72
2023/10/13 00:51:18;;;;;;;259.67;244.65;;;20.10;99.90;;;;;;4970486;28;20046;-71
2023/10/13 00:53:46;;;;;;;263.38;247.85;;;20.10;99.90;;;;;;4959004;28;20388;-71
2023/10/13 00:56:19;;;;;;;249.02;234.68;;;20.00;99.90;;;;;;4971508;28;20045;-71
2023/10/13 00:58:52;;;;;;;245.27;231.02;;;20.00;99.90;;;;;;4971167;28;20031;-71
2023/10/13 01:01:22;;;;;;;240.20;226.38;;;20.00;99.90;;;;;;4964901;28;20416;-71
2023/10/13 01:03:49;;;;;;;238.63;224.88;;;20.00;99.90;;;;;;4963540;28;20042;-72
2023/10/13 01:06:19;;;;;;;225.05;212.27;;;19.90;99.90;;;;;;4970447;28;20050;-71
2023/10/13 01:08:50;;;;;;;226.40;214.05;;;20.00;99.90;;;;;;4968168;28;20428;-71
2023/10/13 01:11:18;;;;;;;217.30;204.82;;;20.10;99.90;;;;;;4967051;28;20051;-71
2023/10/13 01:13:44;;;;;;;203.18;192.18;;;20.10;99.90;;;;;;4972635;28;20038;-71
2023/10/13 01:16:10;;;;;;;210.15;198.60;;;20.10;99.90;;;;;;4963484;28;20039;-71
2023/10/13 01:18:47;;;;;;;212.85;200.60;;;20.10;99.90;;;;;;4973157;28;20034;-71
2023/10/13 01:21:16;;;;;;;216.80;204.35;;;20.00;99.90;;;;;;4971547;28;20066;-70
2023/10/13 01:23:45;;;;;;;204.60;193.38;;;19.90;99.90;;;;;;4968281;28;20049;-71
2023/10/13 01:26:17;;;;;;;252.18;238.13;;;20.00;99.90;;;;;;4970501;28;20503;-71
2023/10/13 01:28:46;;;;;;;239.05;225.57;;;20.00;99.90;;;;;;4969297;28;20049;-71
2023/10/13 01:31:29;;;;;;;254.45;240.45;;;19.90;99.90;;;;;;4972054;28;20061;-71
2023/10/13 01:33:58;;;;;;;254.68;240.82;;;20.00;99.90;;;;;;4972498;28;20047;-71
2023/10/13 01:36:28;;;;;;;265.05;249.95;;;20.00;99.90;;;;;;4963500;28;20074;-71
2023/10/13 01:38:54;;;;;;;221.73;209.35;;;20.00;99.90;;;;;;4972307;28;20034;-71
2023/10/13 01:41:21;;;;;;;246.38;232.52;;;20.10;99.90;;;;;;4962090;28;20047;-71
2023/10/13 01:43:48;;;;;;;274.60;259.65;;;20.00;99.90;;;;;;4964052;28;20035;-71
2023/10/13 01:46:21;;;;;;;282.27;266.35;;;20.00;99.90;;;;;;4967056;28;20488;-71
2023/10/13 01:48:47;;;;;;;259.65;244.63;;;20.10;99.90;;;;;;4968257;28;20023;-71
2023/10/13 01:51:13;;;;;;;256.98;241.93;;;20.20;99.90;;;;;;4971452;28;20038;-72
2023/10/13 01:53:41;;;;;;;264.13;249.55;;;20.10;99.90;;;;;;4967778;28;20039;-71
2023/10/13 01:56:10;;;;;;;258.77;244.35;;;20.10;99.90;;;;;;4956846;28;20027;-72
2023/10/13 01:58:42;;;;;;;259.73;244.88;;;20.10;99.90;;;;;;4969117;28;20391;-71
2023/10/13 02:01:10;;;;;;;292.35;276.55;;;20.20;99.90;;;;;;4957461;28;20039;-72
2023/10/13 02:03:45;;;;;;;300.40;283.75;;;20.30;99.90;;;;;;4966861;28;20047;-71
2023/10/13 02:06:17;;;;;;;298.30;281.67;;;20.30;99.90;;;;;;4964920;28;20035;-71
2023/10/13 02:08:44;;;;;;;273.85;258.70;;;20.30;99.90;;;;;;4969505;28;20050;-72
2023/10/13 02:11:10;;;;;;;210.13;198.38;;;20.00;99.90;;;;;;4970540;28;20033;-71
2023/10/13 02:13:48;;;;;;;252.18;237.68;;;19.70;99.90;;;;;;4966437;28;20031;-71
2023/10/13 02:16:18;;;;;;;264.05;249.27;;;19.60;99.90;;;;;;4971926;28;20046;-71
2023/10/13 02:18:44;;;;;;;251.80;237.57;;;19.60;99.90;;;;;;4975256;28;20038;-72
2023/10/13 02:21:13;;;;;;;252.75;238.07;;;19.50;99.90;;;;;;4974630;28;20051;-71
2023/10/13 02:23:59;;;;;;;270.55;254.95;;;19.50;99.90;;;;;;4976739;28;20396;-71
2023/10/13 02:26:38;;;;;;;229.80;217.18;;;19.60;99.90;;;;;;4967456;28;20031;-71
2023/10/13 02:29:07;;;;;;;209.00;197.18;;;19.60;99.90;;;;;;4975470;28;20027;-71
2023/10/13 02:31:37;;;;;;;211.50;199.65;;;19.50;99.90;;;;;;4970663;28;20085;-71
2023/10/13 02:34:07;;;;;;;178.63;168.70;;;19.40;99.90;;;;;;4974910;28;20027;-71
2023/10/13 02:36:43;;;;;;;183.02;173.02;;;19.50;99.90;;;;;;4967803;28;20046;-71
2023/10/13 02:39:10;;;;;;;225.82;213.35;;;19.50;99.90;;;;;;4973630;28;20039;-71
2023/10/13 02:41:37;;;;;;;243.73;230.25;;;19.60;99.90;;;;;;4974258;28;20395;-71
2023/10/13 02:44:06;;;;;;;264.73;250.35;;;19.80;99.90;;;;;;4971150;28;20407;-71
2023/10/13 02:46:35;;;;;;;254.45;240.52;;;19.70;99.90;;;;;;4968311;28;20039;-71
2023/10/13 02:49:09;;;;;;;262.10;247.88;;;19.70;99.90;;;;;;4958008;28;20039;-71
2023/10/13 02:51:36;;;;;;;279.85;264.48;;;19.80;99.90;;;;;;4968874;28;20051;-71
2023/10/13 02:54:09;;;;;;;284.63;269.38;;;19.90;99.90;;;;;;4958658;28;21595;-71
2023/10/13 02:56:36;;;;;;;277.75;262.60;;;20.00;99.90;;;;;;4967405;28;20042;-71
2023/10/13 02:59:05;;;;;;;294.88;278.83;;;20.00;99.90;;;;;;4986676;28;20527;-71
2023/10/13 03:01:35;;;;;;;291.80;276.20;;;20.10;99.90;;;;;;4964936;28;20050;-71
2023/10/13 03:04:02;;;;;;;286.45;271.20;;;20.10;99.90;;;;;;4974685;28;20031;-71
2023/10/13 03:06:32;;;;;;;294.48;278.55;;;20.20;99.90;;;;;;4967963;28;20042;-71
2023/10/13 03:09:13;;;;;;;298.13;282.23;;;20.10;99.90;;;;;;4971639;28;20054;-71
2023/10/13 03:11:47;;;;;;;283.65;267.90;;;20.10;99.90;;;;;;4966680;28;20047;-72
2023/10/13 03:14:24;;;;;;;296.05;280.38;;;20.10;99.90;;;;;;4974967;28;20480;-72
2023/10/13 03:17:14;;;;;;;302.58;286.23;;;20.10;99.90;;;;;;4964907;28;20510;-71
2023/10/13 03:19:49;;;;;;;284.65;269.25;;;20.10;99.90;;;;;;4974405;28;20411;-72
2023/10/13 03:22:16;;;;;;;296.17;280.15;;;20.20;99.90;;;;;;4973206;28;20523;-71
2023/10/13 03:24:49;;;;;;;298.92;282.67;;;20.20;99.90;;;;;;4973362;28;20043;-71
2023/10/13 03:27:17;;;;;;;309.42;292.75;;;20.20;99.90;;;;;;4960747;28;20038;-72
2023/10/13 03:29:44;;;;;;;308.90;292.00;;;20.20;99.90;;;;;;4975810;28;20399;-71
2023/10/13 03:32:15;;;;;;;308.25;291.77;;;20.20;99.90;;;;;;4970573;28;20047;-71
2023/10/13 03:37:38;;;;;;;291.92;276.08;;;20.30;99.90;;;;;;4978796;28;20035;-71
2023/10/13 03:45:42;;;;;;;293.58;277.65;;;20.20;99.90;;;;;;4976060;28;20043;-71
2023/10/13 03:48:09;;;;;;;311.67;294.75;;;20.30;99.90;;;;;;4973651;28;20043;-71
2023/10/13 03:50:46;;;;;;;329.48;310.95;;;20.20;99.90;;;;;;4970938;28;20016;-71
2023/10/13 03:53:13;;;;;;;288.63;272.75;;;20.10;99.90;;;;;;4974494;28;20047;-71
2023/10/13 03:55:39;;;;;;;301.27;284.40;;;20.10;99.90;;;;;;4972693;28;20042;-71
2023/10/13 03:58:06;;;;;;;331.95;314.13;;;20.10;99.90;;;;;;4974525;28;20023;-71
2023/10/13 04:00:33;;;;;;;324.27;306.52;;;20.10;99.90;;;;;;4971970;28;20047;-71
2023/10/13 04:05:44;;;;;;;317.88;300.70;;;20.10;99.90;;;;;;4964779;28;20038;-71
2023/10/13 04:21:42;;;;;;;214.05;202.95;;;19.90;99.90;;;;;;4970335;28;20474;-71
2023/10/13 04:32:15;;;;;;;147.88;139.65;;;20.00;99.90;;;;;;4966199;28;20045;-71
2023/10/13 04:34:46;;;;;;;140.60;132.85;;;20.00;99.90;;;;;;4967476;28;20047;-71
2023/10/13 04:37:47;;;;;;;126.70;119.60;;;20.00;99.90;;;;;;4965589;28;20039;-72
2023/10/13 04:40:14;;;;;;;104.65;98.65;;;20.00;99.90;;;;;;4965527;28;20038;-71
2023/10/13 04:42:49;;;;;;;120.47;113.57;;;20.10;99.90;;;;;;4964749;28;20045;-71
2023/10/13 04:45:55;;;;;;;110.78;104.60;;;20.10;99.90;;;;;;4968111;28;20476;-71
2023/10/13 04:50:53;;;;;;;138.57;130.88;;;20.10;99.90;;;;;;4970074;28;20022;-71
2023/10/13 04:53:34;;;;;;;140.30;132.50;;;20.10;99.90;;;;;;4963681;28;20047;-71
2023/10/13 05:04:22;;;;;;;119.53;112.40;;;20.10;99.90;;;;;;4924897;29;20055;-71
2023/10/13 06:28:41;;;;;;;103.70;97.95;;;19.90;99.90;;;;;;4958732;28;20043;-71
2023/10/13 06:31:08;;;;;;;98.70;92.82;;;19.90;99.90;;;;;;4960636;28;20038;-72
2023/10/13 06:33:34;;;;;;;108.00;102.07;;;19.90;99.90;;;;;;4962814;28;20047;-72
2023/10/13 06:36:09;;;;;;;122.60;115.70;;;19.90;99.90;;;;;;4972550;28;20027;-71
2023/10/13 06:38:36;;;;;;;111.10;104.72;;;19.90;99.90;;;;;;4971001;28;20034;-71
2023/10/13 06:41:05;;;;;;;120.35;113.18;;;19.90;99.90;;;;;;4966111;28;20050;-72
2023/10/13 06:43:40;;;;;;;117.53;111.15;;;19.90;99.90;;;;;;4972848;28;20031;-71
2023/10/13 06:46:07;;;;;;;110.30;103.68;;;20.00;99.90;;;;;;4953119;28;20031;-71
2023/10/13 06:48:34;;;;;;;122.10;115.50;;;20.00;99.90;;;;;;4961771;28;20042;-71
2023/10/13 06:51:26;;;;;;;119.45;113.00;;;20.00;99.90;;;;;;4972156;28;20037;-71
2023/10/13 06:53:56;;;;;;;112.82;106.60;;;19.90;99.90;;;;;;4972099;28;20027;-71
2023/10/13 06:56:26;;;;;;;118.80;111.85;;;20.00;99.90;;;;;;4969030;28;20051;-72
2023/10/13 06:58:59;;;;;;;140.97;132.43;;;20.00;99.90;;;;;;4959298;28;20047;-72
2023/10/13 07:01:28;;;;;;;134.38;127.07;;;20.00;99.90;;;;;;4957151;28;20050;-72
2023/10/13 07:03:55;;;;;;;135.93;128.38;;;20.00;99.90;;;;;;4959533;28;20043;-70
2023/10/13 07:06:21;;;;;;;116.55;109.45;;;20.00;99.90;;;;;;4966756;28;20085;-71
2023/10/13 07:08:55;;;;;;;133.98;126.00;;;20.00;99.90;;;;;;4965449;28;20045;-71
2023/10/13 07:11:33;;;;;;;117.60;111.20;;;20.00;99.90;;;;;;4961775;28;20054;-72
2023/10/13 07:14:09;;;;;;;108.35;102.22;;;20.10;99.90;;;;;;4955750;28;20047;-71
2023/10/13 07:16:43;;;;;;;108.93;102.85;;;20.10;99.90;;;;;;4955661;28;20050;-71
2023/10/13 07:19:09;;;;;;;108.30;102.30;;;20.10;99.90;;;;;;4975357;28;20408;-70
2023/10/13 07:21:35;;;;;;;107.90;101.30;;;20.20;99.90;;;;;;4975199;28;20062;-71
2023/10/13 07:24:08;;;;;;;108.53;101.95;;;20.30;99.90;;;;;;4973248;28;20033;-70
2023/10/13 07:26:42;;;;;;;109.93;103.97;;;20.30;99.90;;;;;;4967233;28;20503;-71
2023/10/13 07:29:09;;;;;;;107.43;101.60;;;20.40;99.90;;;;;;4975154;28;20027;-71
2023/10/13 07:31:37;;;;;;;116.13;110.05;;;20.50;99.90;;;;;;4974339;28;20031;-71
2023/10/13 07:34:22;;;;;;;122.60;114.75;;;20.50;99.90;;;;;;4975386;28;20034;-71
2023/10/13 07:36:49;;;;;;;111.40;105.15;;;20.60;99.90;;;;;;4961767;28;20036;-71
2023/10/13 07:39:23;;;;;;;119.75;112.82;;;20.60;99.90;;;;;;4973458;28;20038;-71
2023/10/13 07:41:53;;;;;;;134.20;126.88;;;20.60;99.90;;;;;;4971361;28;20038;-71
2023/10/13 07:44:24;;;;;;;129.30;122.30;;;20.60;99.90;;;;;;4973906;28;20039;-71
2023/10/13 07:46:59;;;;;;;131.63;124.47;;;20.60;99.90;;;;;;4959660;28;20372;-71
2023/10/13 07:49:30;;;;;;;134.93;127.30;;;20.60;99.90;;;;;;4958070;28;20023;-71
2023/10/13 07:52:00;;;;;;;143.38;134.52;;;20.60;99.90;;;;;;4965864;28;20171;-70
2023/10/13 07:54:27;;;;;;;165.90;156.80;;;20.70;99.90;;;;;;4968507;28;20050;-69
2023/10/13 07:56:55;;;;;;;137.57;129.93;;;20.70;99.90;;;;;;4961205;28;20043;-75
2023/10/13 07:59:24;;;;;;;132.60;125.18;;;20.70;99.90;;;;;;4970973;28;20042;-74
2023/10/13 08:02:12;;;;;;;134.10;126.20;;;20.70;99.90;;;;;;4965370;28;20067;-75
2023/10/13 08:04:38;;;;;;;133.80;126.18;;;20.70;99.90;;;;;;4956639;28;20058;-72
2023/10/13 08:07:13;;;;;;;141.77;134.07;;;20.80;99.90;;;;;;4957638;28;20058;-79
2023/10/13 08:09:51;;;;;;;146.63;138.52;;;20.80;99.90;;;;;;4955316;28;20043;-70
2023/10/13 08:12:21;;;;;;;143.95;135.82;;;20.90;99.90;;;;;;4958411;28;20038;-70
2023/10/13 08:14:48;;;;;;;163.53;154.80;;;20.90;99.90;;;;;;4974400;28;20027;-69
2023/10/13 08:17:14;;;;;;;179.68;170.00;;;21.00;99.90;;;;;;4962585;28;20293;-71
2023/10/13 08:19:44;;;;;;;152.02;143.70;;;21.00;99.90;;;;;;4974717;28;20057;-71
2023/10/13 08:27:35;;;;;;;187.50;177.73;;;21.10;99.90;;;;;;4972238;28;20081;-70
2023/10/13 08:37:34;;;;;;;149.35;141.02;;;21.10;99.90;;;;;;4980027;28;20026;-72
2023/10/13 08:45:53;;;;;;;148.80;140.02;;;21.10;99.90;;;;;;4974320;28;20026;-72
2023/10/13 08:58:59;;;;;;;159.00;150.23;;;21.20;99.90;;;;;;4975307;28;20039;-73
2023/10/13 09:01:29;;;;;;;152.43;143.63;;;21.30;99.90;;;;;;4960176;28;20408;-72
2023/10/13 09:04:07;;;;;;;168.20;158.75;;;21.20;99.90;;;;;;4968006;28;20423;-72
2023/10/13 09:06:36;;;;;;;181.70;172.13;;;21.30;99.90;;;;;;4955193;28;20043;-72
2023/10/13 09:09:07;;;;;;;173.02;163.32;;;21.30;99.90;;;;;;4955389;28;20054;-72
2023/10/13 09:12:08;;;;;;;182.32;172.35;;;21.30;99.90;;;;;;4967605;28;20023;-72
2023/10/13 09:14:42;;;;;;;187.02;176.85;;;21.40;99.90;;;;;;4963775;28;20043;-73
2023/10/13 09:19:56;;;;;;;190.15;180.02;;;21.60;99.90;;;;;;4970659;28;20510;-72
2023/10/13 09:22:35;;;;;;;190.30;180.02;;;21.60;99.90;;;;;;4964271;28;20042;-72
2023/10/13 09:25:05;;;;;;;197.60;186.80;;;21.60;99.90;;;;;;4970903;28;20043;-72
2023/10/13 09:27:37;;;;;;;238.52;224.88;;;21.60;99.90;;;;;;4972942;28;20043;-72
2023/10/13 09:30:18;;;;;;;250.02;236.25;;;21.70;99.90;;;;;;4953180;28;20043;-71
2023/10/13 09:32:48;;;;;;;244.15;230.77;;;21.70;99.90;;;;;;4954320;28;20046;-73
2023/10/13 09:35:27;;;;;;;229.25;216.50;;;21.80;99.90;;;;;;4956764;28;20047;-70
2023/10/13 09:37:59;;;;;;;257.10;242.32;;;21.80;99.90;;;;;;4958693;28;20047;-73
2023/10/13 09:40:25;;;;;;;252.38;238.13;;;21.90;99.90;;;;;;4968006;28;20050;-72
2023/10/13 09:42:55;;;;;;;242.35;228.60;;;21.90;99.90;;;;;;4973139;28;20081;-72
2023/10/13 09:45:27;;;;;;;244.30;230.82;;;21.90;99.90;;;;;;4971265;28;20487;-73
2023/10/13 09:47:57;;;;;;;264.15;248.80;;;22.00;99.90;;;;;;4965797;28;20053;-72
2023/10/13 09:50:24;;;;;;;252.88;238.32;;;22.00;99.90;;;;;;4970388;28;20026;-72
2023/10/13 09:52:53;;;;;;;283.17;265.95;;;22.10;99.90;;;;;;4972104;28;20031;-72
2023/10/13 09:55:35;;;;;;;276.40;261.42;;;22.10;99.90;;;;;;4956760;28;20035;-72
2023/10/13 09:58:14;;;;;;;278.08;262.10;;;22.20;99.90;;;;;;4971154;28;20027;-72
2023/10/13 10:00:57;;;;;;;313.02;295.45;;;22.20;99.90;;;;;;4970844;28;20034;-72
2023/10/13 10:06:18;;;;;;;279.23;263.60;;;22.20;99.90;;;;;;4967911;28;20037;-71
2023/10/13 10:08:50;;;;;;;246.05;232.10;;;22.30;99.90;;;;;;4968045;28;20046;-72
2023/10/13 10:11:26;;;;;;;299.83;283.42;;;22.40;99.90;;;;;;4956773;28;20034;-72
2023/10/13 10:14:08;;;;;;;273.65;258.83;;;22.50;99.90;;;;;;4958079;28;20038;-68
2023/10/13 10:16:46;;;;;;;322.95;303.80;;;22.50;99.90;;;;;;4964295;28;20062;-70
2023/10/13 10:19:13;;;;;;;324.13;306.42;;;22.60;99.90;;;;;;4972050;28;20027;-70
2023/10/13 10:21:41;;;;;;;339.88;320.48;;;22.70;99.90;;;;;;4964138;28;20054;-70
2023/10/13 10:24:36;;;;;;;311.20;293.65;;;22.80;99.90;;;;;;4953672;28;20046;-69
2023/10/13 10:27:04;;;;;;;284.00;267.83;;;22.80;99.90;;;;;;4949061;28;20055;-71
2023/10/13 10:29:32;;;;;;;287.40;271.67;;;22.90;99.90;;;;;;4953130;29;20027;-71
2023/10/13 10:31:58;;;;;;;304.75;288.00;;;22.90;99.90;;;;;;4960129;28;20042;-70
2023/10/13 10:34:32;;;;;;;334.00;315.63;;;23.00;99.90;;;;;;4961725;28;20042;-70
2023/10/13 10:36:58;;;;;;;321.73;303.83;;;23.00;99.90;;;;;;4971426;28;20023;-69
2023/10/13 10:39:45;;;;;;;317.35;299.10;;;23.10;99.90;;;;;;4971610;28;20030;-72
2023/10/13 10:42:23;;;;;;;329.05;310.42;;;23.10;99.90;;;;;;4971976;28;20050;-72
2023/10/13 10:44:55;;;;;;;367.50;346.55;;;23.20;99.90;;;;;;4975524;28;20058;-74
2023/10/13 10:47:30;;;;;;;379.25;357.23;;;23.30;99.90;;;;;;4958401;28;20042;-75
2023/10/13 10:50:00;;;;;;;372.83;351.42;;;23.30;99.90;;;;;;4970528;28;20054;-74
2023/10/13 10:52:27;;;;;;;393.23;370.63;;;23.40;99.90;;;;;;4958927;28;20035;-74
2023/10/13 10:54:59;;;;;;;394.45;371.73;;;23.40;99.90;;;;;;4973039;28;20525;-74
2023/10/13 10:57:37;;;;;;;341.27;322.23;;;23.50;99.90;;;;;;4961239;28;20055;-74
2023/10/13 11:00:14;;;;;;;349.92;330.73;;;23.60;99.90;;;;;;4956907;28;20058;-74
2023/10/13 11:02:40;;;;;;;374.38;353.45;;;23.70;99.90;;;;;;4956401;28;20514;-74
2023/10/13 11:05:10;;;;;;;410.80;387.10;;;23.80;99.90;;;;;;4957381;28;20384;-74
2023/10/13 11:07:36;;;;;;;420.20;396.08;;;23.90;99.90;;;;;;4956689;28;20046;-74
2023/10/13 11:10:17;;;;;;;432.65;407.48;;;24.00;99.90;;;;;;4964544;28;20156;-74
2023/10/13 11:12:56;;;;;;;427.52;403.13;;;24.00;99.90;;;;;;4971893;28;20039;-74
2023/10/13 11:15:23;;;;;;;357.70;337.52;;;24.00;99.90;;;;;;4974393;28;20424;-74
2023/10/13 11:17:55;;;;;;;374.02;353.10;;;24.00;99.90;;;;;;4975263;28;20046;-74
2023/10/13 11:20:33;;;;;;;372.80;351.35;;;24.10;99.90;;;;;;4965681;28;20030;-71
2023/10/13 11:23:00;;;;;;;364.98;344.30;;;24.30;99.90;;;;;;4964901;28;20047;-71
2023/10/13 11:25:29;;;;;;;363.80;343.38;;;24.30;99.90;;;;;;4969525;28;20065;-71
2023/10/13 11:27:59;;;;;;;341.95;323.05;;;24.30;99.90;;;;;;4970970;28;20046;-71
2023/10/13 11:30:29;;;;;;;365.95;345.15;;;24.30;99.90;;;;;;4970677;28;20031;-72
2023/10/13 11:33:05;;;;;;;366.50;345.77;;;24.30;99.90;;;;;;4956352;28;20050;-71
2023/10/13 11:38:26;;;;;;;393.50;371.40;;;24.30;99.90;;;;;;4976569;28;20027;-72
2023/10/13 11:46:13;;;;;;;357.40;337.20;;;24.30;99.90;;;;;;4966804;28;20027;-71
2023/10/13 11:48:44;;;;;;;377.02;355.77;;;24.40;99.90;;;;;;4955589;28;20047;-71
2023/10/13 11:51:17;;;;;;;347.85;328.55;;;24.40;99.90;;;;;;4968381;28;20054;-69
2023/10/13 11:53:45;;;;;;;389.92;367.50;;;24.40;99.90;;;;;;4969375;28;20428;-69
2023/10/13 11:56:11;;;;;;;376.77;354.48;;;24.40;99.90;;;;;;4958782;28;20035;-69
2023/10/13 11:58:37;;;;;;;366.27;344.92;;;24.50;99.90;;;;;;4966129;28;20030;-69
2023/10/13 12:11:45;;;;;;;397.80;374.90;;;24.50;99.90;;;;;;4971961;28;20031;-69
2023/10/13 12:14:19;;;;;;;378.98;357.30;;;24.40;99.90;;;;;;4974380;28;20038;-69
2023/10/13 12:16:50;;;;;;;363.27;342.13;;;24.40;99.90;;;;;;4973637;28;20051;-69
2023/10/13 12:19:23;;;;;;;391.90;369.17;;;24.40;99.90;;;;;;4956946;28;20042;-69
2023/10/13 12:21:56;;;;;;;376.75;355.00;;;24.40;99.90;;;;;;4967967;28;20044;-71
2023/10/13 12:27:01;;;;;;;367.38;346.55;;;24.50;99.90;;;;;;4958117;28;20433;-69
2023/10/13 12:29:30;;;;;;;322.25;303.95;;;24.50;99.90;;;;;;4953505;29;20024;-69
2023/10/13 12:32:30;;;;;;;327.75;309.50;;;24.50;99.90;;;;;;4968342;28;20047;-69
2023/10/13 12:51:40;;;;;;;338.20;319.23;;;24.80;99.90;;;;;;4955178;28;20027;-69
2023/10/13 12:54:17;;;;;;;425.83;400.58;;;24.80;99.90;;;;;;4959756;28;20392;-72
2023/10/13 12:56:44;;;;;;;605.92;568.03;;;24.70;99.90;;;;;;4957510;28;20523;-72
2023/10/13 12:59:13;;;;;;;1999.90;999.90;;;24.70;99.90;;;;;;4955221;28;20058;-72
2023/10/13 13:01:42;;;;;;;1999.90;999.90;;;24.70;99.90;;;;;;4965685;28;20050;-72
2023/10/13 13:04:18;;;;;;;1999.90;999.90;;;24.70;99.90;;;;;;4963657;28;20036;-72
2023/10/13 13:06:44;;;;;;;1999.90;999.90;;;24.70;99.90;;;;;;4959093;28;20396;-74
2023/10/13 13:09:10;;;;;;;1999.90;999.90;;;24.70;99.90;;;;;;4958093;28;20026;-74
2023/10/13 13:11:42;;;;;;;1999.90;999.90;;;24.60;99.90;;;;;;4973203;28;20034;-74
2023/10/13 13:14:09;;;;;;;1999.90;999.90;;;24.60;99.90;;;;;;4973885;28;20441;-74
2023/10/13 13:16:35;;;;;;;1999.90;999.90;;;24.50;99.90;;;;;;4961834;28;20051;-74
2023/10/13 13:19:10;;;;;;;1999.90;999.90;;;24.50;99.90;;;;;;4967030;28;20043;-73
2023/10/13 13:21:38;;;;;;;1999.90;999.90;;;24.40;99.90;;;;;;4963002;28;20046;-74
2023/10/13 13:24:10;;;;;;;1999.90;999.90;;;24.30;99.90;;;;;;4966935;28;20035;-74
2023/10/13 13:26:40;;;;;;;1999.90;999.90;;;24.30;99.90;;;;;;4964579;28;20039;-73
2023/10/13 13:29:09;;;;;;;1999.90;999.90;;;24.30;99.90;;;;;;4954125;28;20043;-74
2023/10/13 13:31:42;;;;;;;1999.90;999.90;;;24.30;99.90;;;;;;4965001;28;20047;-74
2023/10/13 13:34:12;;;;;;;1999.90;999.90;;;24.30;99.90;;;;;;4972461;28;20035;-73
2023/10/13 13:36:44;;;;;;;1999.90;999.90;;;24.30;99.90;;;;;;4961142;28;20487;-73
2023/10/13 13:39:11;;;;;;;1999.90;999.90;;;24.30;99.90;;;;;;4973695;28;20046;-74
2023/10/13 13:41:38;;;;;;;1999.90;999.90;;;24.20;99.90;;;;;;4972354;28;20047;-73
2023/10/13 13:44:13;;;;;;;1999.90;999.90;;;24.20;99.90;;;;;;4967195;28;20492;-74
2023/10/13 13:46:42;;;;;;;1999.90;999.90;;;24.10;99.90;;;;;;4941957;28;20047;-74
2023/10/13 13:49:17;;;;;;;1999.90;999.90;;;24.10;99.90;;;;;;4937775;29;20050;-74
2023/10/13 13:51:51;;;;;;;1999.90;999.90;;;24.00;99.90;;;;;;4949602;29;20047;-73
2023/10/13 13:54:19;;;;;;;1999.90;999.90;;;24.00;99.90;;;;;;4948215;28;20051;-73
2023/10/13 13:56:46;;;;;;;1999.90;999.90;;;24.00;99.90;;;;;;4937705;28;20043;-74
2023/10/13 13:59:15;;;;;;;1999.90;999.90;;;23.90;99.90;;;;;;4952662;29;20385;-73
2023/10/13 14:01:44;;;;;;;1999.90;999.90;;;23.90;99.90;;;;;;4957648;28;20039;-72
2023/10/13 14:04:11;;;;;;;1999.90;999.90;;;23.90;99.90;;;;;;4971730;28;20035;-72
2023/10/13 14:06:37;;;;;;;1999.90;999.90;;;23.80;99.90;;;;;;4963916;28;20030;-70
2023/10/13 14:09:14;;;;;;;1999.90;999.90;;;23.70;99.90;;;;;;4968433;28;20043;-70
2023/10/13 14:14:28;;;;;;;499.65;468.60;;;23.40;99.90;;;;;;4976909;28;20035;-69
2023/10/13 14:17:02;;;;;;;510.65;479.30;;;23.30;99.90;;;;;;4956964;28;20066;-69
2023/10/13 14:19:28;;;;;;;501.35;470.40;;;23.30;99.90;;;;;;4957611;28;20043;-69
2023/10/13 14:21:55;;;;;;;454.48;426.48;;;23.20;99.90;;;;;;4956914;28;20408;-70
2023/10/13 14:24:27;;;;;;;433.30;407.08;;;23.20;99.90;;;;;;4955939;29;20031;-70
2023/10/13 14:26:56;;;;;;;442.40;415.35;;;23.10;99.90;;;;;;4957660;28;20050;-69
2023/10/13 14:29:26;;;;;;;496.48;464.88;;;23.10;99.90;;;;;;4976808;28;20499;-69
2023/10/13 14:31:52;;;;;;;457.23;428.17;;;23.10;99.90;;;;;;4960185;28;20039;-70
2023/10/13 14:34:21;;;;;;;404.40;379.73;;;23.10;99.90;;;;;;4957105;29;20039;-69
2023/10/13 14:36:50;;;;;;;403.48;378.85;;;23.00;99.90;;;;;;4956355;28;20511;-69
2023/10/13 14:39:20;;;;;;;451.27;422.60;;;23.00;99.90;;;;;;4970349;28;20049;-70
2023/10/13 14:41:47;;;;;;;422.48;395.63;;;22.90;99.90;;;;;;4961468;28;20431;-70
2023/10/13 14:44:14;;;;;;;451.35;421.95;;;22.90;99.90;;;;;;4961696;28;20062;-69
2023/10/13 14:46:40;;;;;;;374.98;351.45;;;22.90;99.90;;;;;;4962139;28;20032;-69
2023/10/13 14:49:06;;;;;;;385.38;361.88;;;22.90;99.90;;;;;;4967795;28;20035;-70
2023/10/13 14:51:32;;;;;;;376.35;353.33;;;22.80;99.90;;;;;;4964970;28;20039;-69
2023/10/13 14:54:03;;;;;;;335.80;314.80;;;22.80;99.90;;;;;;4957612;28;20042;-70
2023/10/13 14:56:30;;;;;;;337.98;316.85;;;22.80;99.90;;;;;;4956400;28;20047;-70
2023/10/13 14:58:56;;;;;;;430.52;402.88;;;22.80;99.90;;;;;;4956700;28;20047;-70
2023/10/13 15:01:24;;;;;;;356.50;333.88;;;22.80;99.90;;;;;;4959264;28;20059;-69
2023/10/13 15:03:54;;;;;;;436.15;409.00;;;22.80;99.90;;;;;;4974016;28;20062;-69
2023/10/13 15:06:25;;;;;;;335.05;313.73;;;22.80;99.90;;;;;;4973701;28;20046;-69
2023/10/13 15:08:54;;;;;;;330.08;309.45;;;22.70;99.90;;;;;;4973522;28;20042;-75
2023/10/13 15:11:21;;;;;;;335.83;314.88;;;22.70;99.90;;;;;;4974779;28;20488;-74
2023/10/13 15:13:48;;;;;;;323.55;302.95;;;22.70;99.90;;;;;;4969934;28;20043;-75
2023/10/13 15:16:21;;;;;;;307.27;287.80;;;22.60;99.90;;;;;;4959320;28;20505;-74
2023/10/13 15:18:52;;;;;;;391.55;366.52;;;22.60;99.90;;;;;;4956803;29;20032;-75
2023/10/13 15:21:36;;;;;;;369.42;346.20;;;22.60;99.90;;;;;;4965161;28;20372;-74
2023/10/13 15:24:04;;;;;;;344.83;323.30;;;22.60;99.90;;;;;;4975537;28;20507;-74
2023/10/13 15:26:30;;;;;;;330.92;310.00;;;22.50;99.90;;;;;;4964282;28;20050;-74
2023/10/13 15:29:00;;;;;;;339.25;318.25;;;22.50;99.90;;;;;;4956296;28;20039;-74
2023/10/13 15:31:37;;;;;;;298.60;279.93;;;22.50;99.90;;;;;;4967199;28;20035;-74
2023/10/13 15:34:12;;;;;;;308.98;290.02;;;22.50;99.90;;;;;;4974836;28;20047;-75
2023/10/13 15:36:45;;;;;;;322.98;303.27;;;22.50;99.90;;;;;;4975608;28;20046;-73
2023/10/13 15:39:11;;;;;;;326.00;305.80;;;22.60;99.90;;;;;;4975239;28;20384;-74
2023/10/13 15:41:41;;;;;;;346.40;325.45;;;22.50;99.90;;;;;;4964032;28;20031;-74
2023/10/13 15:44:14;;;;;;;360.35;338.25;;;22.50;99.90;;;;;;4955439;28;20492;-74
2023/10/13 15:46:40;;;;;;;345.58;324.48;;;22.50;99.90;;;;;;4963880;28;20042;-74
2023/10/13 15:49:06;;;;;;;330.15;309.92;;;22.50;99.90;;;;;;4975196;28;20050;-75
2023/10/13 15:51:39;;;;;;;325.13;305.42;;;22.50;99.90;;;;;;4963569;28;20031;-75
2023/10/13 15:54:14;;;;;;;268.92;252.93;;;22.40;99.90;;;;;;4955776;28;20366;-74